Time;durP1;ratioP1;P1;durP2;ratioP2;P2;SDS_P1;SDS_P2;PMS_P1;PMS_P2;Temp;Humidity;BMP_temperature;BMP_pressure;BME280_temperature;BME280_humidity;BME280_pressure;Samples;Min_cycle;Max_cycle;Signal;HPM_P1;HPM_P2
2021/10/21 00:00:10;;;;;;;12.80;11.15;;;;;;;;;;10298561;28;20068;-62
2021/10/21 00:05:08;;;;;;;13.40;10.48;;;;;;;;;;10298532;28;20103;-63
2021/10/21 00:10:09;;;;;;;12.40;11.20;;;;;;;;;;10297328;28;20068;-63
2021/10/21 00:15:09;;;;;;;12.23;10.63;;;;;;;;;;10312336;28;20497;-62
2021/10/21 00:20:09;;;;;;;12.13;10.68;;;;;;;;;;10316745;28;20071;-63
2021/10/21 00:25:13;;;;;;;12.80;10.95;;;;;;;;;;10303429;28;20087;-63
2021/10/21 00:30:12;;;;;;;11.90;10.75;;;;;;;;;;10302362;28;20102;-63
2021/10/21 00:35:10;;;;;;;12.05;10.02;;;;;;;;;;10301329;28;20501;-62
2021/10/21 00:40:09;;;;;;;13.25;11.38;;;;;;;;;;10305179;28;20083;-63
2021/10/21 00:45:09;;;;;;;13.57;10.68;;;;;;;;;;10302433;28;20080;-61
2021/10/21 00:50:08;;;;;;;11.98;10.73;;;;;;;;;;10301655;28;20067;-63
2021/10/21 00:55:07;;;;;;;12.90;10.93;;;;;;;;;;10305773;28;20516;-63
2021/10/21 01:00:06;;;;;;;14.40;10.27;;;;;;;;;;10299675;28;20454;-63
2021/10/21 01:05:07;;;;;;;12.15;10.65;;;;;;;;;;10299330;28;20076;-63
2021/10/21 01:10:06;;;;;;;11.20;10.05;;;;;;;;;;10305801;28;20068;-62
2021/10/21 01:15:18;;;;;;;12.30;11.02;;;;;;;;;;10299479;28;20526;-62
2021/10/21 01:20:17;;;;;;;11.95;10.75;;;;;;;;;;10303566;28;20453;-60
2021/10/21 01:25:16;;;;;;;13.75;10.63;;;;;;;;;;10243811;28;20085;-60
2021/10/21 01:30:19;;;;;;;12.30;10.30;;;;;;;;;;10300791;28;20064;-62
2021/10/21 01:35:19;;;;;;;12.10;10.77;;;;;;;;;;10302767;28;20079;-61
2021/10/21 01:40:17;;;;;;;12.95;9.20;;;;;;;;;;10300906;28;20087;-61
2021/10/21 01:45:17;;;;;;;11.82;10.63;;;;;;;;;;10304322;28;20083;-60
2021/10/21 01:50:15;;;;;;;25.70;21.73;;;;;;;;;;10303701;28;20403;-60
2021/10/21 01:55:15;;;;;;;19.77;17.58;;;;;;;;;;10305476;28;20040;-62
2021/10/21 02:00:15;;;;;;;15.32;13.73;;;;;;;;;;10298791;28;20068;-63
2021/10/21 02:05:14;;;;;;;19.00;14.63;;;;;;;;;;10299586;28;20079;-62
2021/10/21 02:10:13;;;;;;;35.05;13.85;;;;;;;;;;10300559;28;20482;-63
2021/10/21 02:15:13;;;;;;;13.77;12.05;;;;;;;;;;10304547;28;20067;-63
2021/10/21 02:20:11;;;;;;;13.65;11.40;;;;;;;;;;10300774;28;20073;-63
2021/10/21 02:25:11;;;;;;;12.82;11.48;;;;;;;;;;10315512;28;20158;-63
2021/10/21 02:30:10;;;;;;;12.20;10.90;;;;;;;;;;10316226;28;20504;-63
2021/10/21 02:35:11;;;;;;;12.85;11.55;;;;;;;;;;10313333;28;20060;-63
2021/10/21 02:40:11;;;;;;;11.63;10.52;;;;;;;;;;10315580;28;20087;-62
2021/10/21 02:45:10;;;;;;;13.23;11.40;;;;;;;;;;10316098;28;20103;-63
2021/10/21 02:50:10;;;;;;;12.85;10.60;;;;;;;;;;10302018;28;20063;-64
2021/10/21 02:55:08;;;;;;;16.42;11.43;;;;;;;;;;10299316;28;20063;-63
2021/10/21 03:00:07;;;;;;;14.18;10.77;;;;;;;;;;10292753;28;20068;-63
2021/10/21 03:05:06;;;;;;;16.80;11.38;;;;;;;;;;10312854;28;20078;-63
2021/10/21 03:10:06;;;;;;;15.18;11.38;;;;;;;;;;10314942;28;20083;-63
2021/10/21 03:15:04;;;;;;;13.38;11.30;;;;;;;;;;10311407;28;20068;-62
2021/10/21 03:20:03;;;;;;;13.10;11.77;;;;;;;;;;10295075;28;20073;-64
2021/10/21 03:25:01;;;;;;;11.98;10.82;;;;;;;;;;10311933;28;20509;-63
2021/10/21 03:30:01;;;;;;;12.45;11.25;;;;;;;;;;10313770;28;20072;-64
2021/10/21 03:34:59;;;;;;;12.93;11.63;;;;;;;;;;10289011;28;20083;-63
2021/10/21 03:39:57;;;;;;;11.75;10.55;;;;;;;;;;10293476;28;20077;-64
2021/10/21 03:44:57;;;;;;;12.70;11.30;;;;;;;;;;10310608;28;20071;-63
2021/10/21 03:49:57;;;;;;;12.93;11.63;;;;;;;;;;10314213;28;20064;-63
2021/10/21 03:54:55;;;;;;;14.20;12.70;;;;;;;;;;10300797;28;20422;-64
2021/10/21 03:59:53;;;;;;;14.23;11.65;;;;;;;;;;10304091;28;20064;-64
2021/10/21 04:04:52;;;;;;;13.23;12.00;;;;;;;;;;10303998;28;20502;-63
2021/10/21 04:09:51;;;;;;;13.85;11.60;;;;;;;;;;10315800;28;20531;-63
2021/10/21 04:14:49;;;;;;;13.77;12.18;;;;;;;;;;10321144;28;20071;-63
2021/10/21 04:19:48;;;;;;;19.50;13.00;;;;;;;;;;10305093;28;20084;-63
2021/10/21 04:24:46;;;;;;;17.13;11.90;;;;;;;;;;10300353;28;20501;-63
2021/10/21 04:29:46;;;;;;;16.13;12.63;;;;;;;;;;10304288;28;20730;-64
2021/10/21 04:34:44;;;;;;;15.13;11.73;;;;;;;;;;10317057;28;20133;-64
2021/10/21 04:39:42;;;;;;;14.05;12.40;;;;;;;;;;10318135;28;20089;-64
2021/10/21 04:44:42;;;;;;;13.60;12.02;;;;;;;;;;10303333;28;20083;-64
2021/10/21 04:49:44;;;;;;;13.63;11.95;;;;;;;;;;10299660;28;20084;-64
2021/10/21 04:54:42;;;;;;;13.27;11.98;;;;;;;;;;10300537;28;20068;-64
2021/10/21 04:59:40;;;;;;;15.32;11.77;;;;;;;;;;10306425;28;20469;-64
2021/10/21 05:04:38;;;;;;;18.35;13.02;;;;;;;;;;10307660;28;20498;-63
2021/10/21 05:09:38;;;;;;;13.05;11.68;;;;;;;;;;10296866;28;20108;-64
2021/10/21 05:14:36;;;;;;;12.38;11.07;;;;;;;;;;10296773;28;20118;-63
2021/10/21 05:19:35;;;;;;;14.77;13.20;;;;;;;;;;10295986;28;20083;-64
2021/10/21 05:24:33;;;;;;;17.38;12.13;;;;;;;;;;10295969;28;20091;-64
2021/10/21 05:29:33;;;;;;;14.88;12.40;;;;;;;;;;10304071;28;20450;-64
2021/10/21 05:34:31;;;;;;;13.15;11.75;;;;;;;;;;10291247;28;20337;-64
2021/10/21 05:39:30;;;;;;;16.17;12.30;;;;;;;;;;10303126;28;20087;-65
2021/10/21 05:44:28;;;;;;;15.20;11.80;;;;;;;;;;10313972;28;20485;-63
2021/10/21 05:49:28;;;;;;;12.15;10.95;;;;;;;;;;10295801;28;20072;-63
2021/10/21 05:54:26;;;;;;;13.43;10.63;;;;;;;;;;10296444;28;20497;-63
2021/10/21 05:59:25;;;;;;;13.75;11.10;;;;;;;;;;10298563;28;20071;-64
2021/10/21 06:04:23;;;;;;;15.95;12.50;;;;;;;;;;10298238;28;20068;-64
2021/10/21 06:09:23;;;;;;;12.00;10.50;;;;;;;;;;10284846;28;20088;-64
2021/10/21 06:14:21;;;;;;;13.20;11.82;;;;;;;;;;10282434;28;20072;-64
2021/10/21 06:19:20;;;;;;;11.98;10.70;;;;;;;;;;10292626;28;20056;-64
2021/10/21 06:24:19;;;;;;;13.60;10.73;;;;;;;;;;10273931;28;20072;-64
2021/10/21 06:29:18;;;;;;;17.48;11.30;;;;;;;;;;10279370;28;20485;-64
2021/10/21 06:34:17;;;;;;;11.50;10.38;;;;;;;;;;10293277;28;20106;-64
2021/10/21 06:39:15;;;;;;;18.13;11.55;;;;;;;;;;10292981;28;20082;-64
2021/10/21 06:44:14;;;;;;;10.48;9.35;;;;;;;;;;10295139;28;20072;-64
2021/10/21 06:49:13;;;;;;;11.10;9.93;;;;;;;;;;10295181;28;20068;-65
2021/10/21 06:54:12;;;;;;;11.23;10.13;;;;;;;;;;10298268;28;20075;-64
2021/10/21 06:59:10;;;;;;;12.20;9.30;;;;;;;;;;10294540;28;20071;-65
2021/10/21 07:04:08;;;;;;;20.23;16.73;;;;;;;;;;10294376;28;20082;-64
2021/10/21 07:09:08;;;;;;;12.73;10.23;;;;;;;;;;10296535;28;20068;-65
2021/10/21 07:14:06;;;;;;;10.60;9.52;;;;;;;;;;10298459;28;20075;-64
2021/10/21 07:19:05;;;;;;;22.23;9.25;;;;;;;;;;10298199;28;20071;-67
2021/10/21 07:24:04;;;;;;;11.73;9.65;;;;;;;;;;10297642;28;20461;-64
2021/10/21 07:29:04;;;;;;;10.48;9.48;;;;;;;;;;10288639;28;20494;-64
2021/10/21 07:34:02;;;;;;;13.15;9.30;;;;;;;;;;10298271;28;20060;-64
2021/10/21 07:39:00;;;;;;;12.15;10.57;;;;;;;;;;10317228;28;20152;-64
2021/10/21 07:43:59;;;;;;;11.80;9.85;;;;;;;;;;10321158;28;20052;-64
2021/10/21 07:48:58;;;;;;;15.07;10.18;;;;;;;;;;10305985;28;20075;-64
2021/10/21 07:53:57;;;;;;;12.65;10.25;;;;;;;;;;10300771;28;20063;-64
2021/10/21 07:58:55;;;;;;;15.65;9.75;;;;;;;;;;10304569;28;20448;-64
2021/10/21 08:03:53;;;;;;;14.23;10.10;;;;;;;;;;10319137;28;20064;-65
2021/10/21 08:08:53;;;;;;;20.90;12.85;;;;;;;;;;10318743;28;20571;-64
2021/10/21 08:13:52;;;;;;;20.15;13.10;;;;;;;;;;10303794;28;20087;-64
2021/10/21 08:18:51;;;;;;;14.43;12.77;;;;;;;;;;10317394;28;20080;-64
2021/10/21 08:23:53;;;;;;;16.02;14.32;;;;;;;;;;10313846;28;20044;-64
2021/10/21 08:28:53;;;;;;;15.27;13.68;;;;;;;;;;10301748;28;20474;-64
2021/10/21 08:33:51;;;;;;;20.95;13.55;;;;;;;;;;10317031;28;20067;-65
2021/10/21 08:38:50;;;;;;;17.80;14.40;;;;;;;;;;10315718;28;20076;-64
2021/10/21 08:43:48;;;;;;;20.38;13.25;;;;;;;;;;10304735;28;20079;-65
2021/10/21 08:48:49;;;;;;;18.52;11.88;;;;;;;;;;10300703;28;20514;-64
2021/10/21 08:53:47;;;;;;;16.63;12.40;;;;;;;;;;10301568;28;20068;-65
2021/10/21 08:58:46;;;;;;;17.40;11.85;;;;;;;;;;10299753;28;20067;-64
2021/10/21 09:03:52;;;;;;;15.23;12.90;;;;;;;;;;10278718;28;20064;-64
2021/10/21 09:08:51;;;;;;;14.20;12.70;;;;;;;;;;10312802;28;20083;-64
2021/10/21 09:14:06;;;;;;;14.32;12.43;;;;;;;;;;10316972;28;20067;-65
2021/10/21 09:19:08;;;;;;;15.63;14.02;;;;;;;;;;10311531;28;20392;-65
2021/10/21 09:24:28;;;;;;;17.13;12.60;;;;;;;;;;10250055;28;20519;-65
2021/10/21 09:29:27;;;;;;;16.30;14.70;;;;;;;;;;10240672;28;20061;-64
2021/10/21 09:34:26;;;;;;;15.93;14.32;;;;;;;;;;10298178;28;20068;-65
2021/10/21 09:39:24;;;;;;;30.75;25.02;;;;;;;;;;10314921;28;20529;-65
2021/10/21 09:44:27;;;;;;;20.58;16.70;;;;;;;;;;10300603;28;20075;-65
2021/10/21 09:49:29;;;;;;;21.55;14.20;;;;;;;;;;10308031;28;20411;-65
2021/10/21 09:54:27;;;;;;;14.45;12.15;;;;;;;;;;10315031;28;20060;-64
2021/10/21 09:59:27;;;;;;;16.33;12.43;;;;;;;;;;10303342;28;20071;-64
2021/10/21 10:04:27;;;;;;;15.27;12.77;;;;;;;;;;10309982;28;20474;-65
2021/10/21 10:09:27;;;;;;;18.30;12.23;;;;;;;;;;10315354;28;20470;-65
2021/10/21 10:14:27;;;;;;;22.38;16.48;;;;;;;;;;10313705;28;20044;-65
2021/10/21 10:19:25;;;;;;;14.90;13.48;;;;;;;;;;10303369;28;20502;-64
2021/10/21 10:24:29;;;;;;;15.65;12.18;;;;;;;;;;10308659;28;20064;-65
2021/10/21 10:29:47;;;;;;;15.52;9.50;;;;;;;;;;10314499;28;20076;-63
2021/10/21 10:34:52;;;;;;;11.77;9.52;;;;;;;;;;10312732;28;20087;-63
2021/10/21 10:39:50;;;;;;;;;;;;;;;;;;10314007;28;20544;-64
2021/10/21 10:45:01;;;;;;;16.85;12.02;;;;;;;;;;10299303;28;19959;-63
2021/10/21 10:49:59;;;;;;;13.35;10.18;;;;;;;;;;10312637;28;20388;-63
2021/10/21 10:55:01;;;;;;;10.57;9.48;;;;;;;;;;10313831;28;20052;-64
2021/10/21 11:00:01;;;;;;;10.73;9.52;;;;;;;;;;10311127;28;20449;-63
2021/10/21 11:05:01;;;;;;;10.88;9.77;;;;;;;;;;10313460;28;20540;-64
2021/10/21 11:10:18;;;;;;;11.20;9.40;;;;;;;;;;10312926;28;20102;-64
2021/10/21 11:15:35;;;;;;;14.07;9.82;;;;;;;;;;10310986;28;20065;-64
2021/10/21 11:20:44;;;;;;;13.05;8.63;;;;;;;;;;10293241;28;20060;-64
2021/10/21 11:25:43;;;;;;;10.93;9.82;;;;;;;;;;10302260;28;20060;-64
2021/10/21 11:30:41;;;;;;;10.20;9.05;;;;;;;;;;10311384;28;20142;-64
2021/10/21 11:35:41;;;;;;;15.05;11.65;;;;;;;;;;10308223;28;20064;-64
2021/10/21 11:40:41;;;;;;;12.35;11.05;;;;;;;;;;10293550;28;20438;-64
2021/10/21 11:45:40;;;;;;;11.25;9.45;;;;;;;;;;10300733;28;20064;-64
2021/10/21 11:50:40;;;;;;;11.70;8.32;;;;;;;;;;10310363;28;20088;-64
2021/10/21 11:55:40;;;;;;;12.35;8.63;;;;;;;;;;10306300;28;20538;-64
2021/10/21 12:00:39;;;;;;;9.75;8.27;;;;;;;;;;10296047;28;20032;-63
2021/10/21 12:05:40;;;;;;;13.10;8.15;;;;;;;;;;10290677;28;20071;-61
2021/10/21 12:10:43;;;;;;;12.45;7.35;;;;;;;;;;10295246;28;20080;-62
2021/10/21 12:15:41;;;;;;;14.02;11.25;;;;;;;;;;10293949;28;20064;-64
2021/10/21 12:20:41;;;;;;;11.18;7.68;;;;;;;;;;10304734;28;20041;-64
2021/10/21 12:25:41;;;;;;;13.13;8.50;;;;;;;;;;10305079;28;20072;-64
2021/10/21 12:30:39;;;;;;;13.25;8.85;;;;;;;;;;10304038;28;20073;-63
2021/10/21 12:35:53;;;;;;;13.23;8.00;;;;;;;;;;10306332;28;20064;-64
2021/10/21 12:41:03;;;;;;;8.30;7.28;;;;;;;;;;10318063;28;20083;-63
2021/10/21 12:46:04;;;;;;;11.00;8.00;;;;;;;;;;10304104;28;20486;-65
2021/10/21 12:51:10;;;;;;;10.15;7.80;;;;;;;;;;10303133;28;20490;-63
2021/10/21 12:56:15;;;;;;;10.50;7.72;;;;;;;;;;10302066;28;20068;-64
2021/10/21 13:01:13;;;;;;;15.70;8.80;;;;;;;;;;10298692;28;20045;-65
2021/10/21 13:06:12;;;;;;;9.23;8.32;;;;;;;;;;10301410;28;20502;-64
2021/10/21 13:11:10;;;;;;;7.68;6.68;;;;;;;;;;10304280;28;20064;-65
2021/10/21 13:16:11;;;;;;;10.45;8.07;;;;;;;;;;10303633;28;20073;-64
2021/10/21 13:21:10;;;;;;;9.35;6.90;;;;;;;;;;10298951;28;20499;-64
2021/10/21 13:26:08;;;;;;;18.55;12.27;;;;;;;;;;10236190;28;20072;-64
2021/10/21 13:31:07;;;;;;;10.73;9.55;;;;;;;;;;10243301;28;20071;-64
2021/10/21 13:36:06;;;;;;;11.60;8.32;;;;;;;;;;10308106;28;20526;-64
2021/10/21 13:41:05;;;;;;;13.63;8.48;;;;;;;;;;10300407;28;20089;-64
2021/10/21 13:46:03;;;;;;;12.70;7.75;;;;;;;;;;10301077;28;20471;-63
2021/10/21 13:51:02;;;;;;;8.85;6.80;;;;;;;;;;10302508;28;20075;-64
2021/10/21 13:56:02;;;;;;;11.15;7.45;;;;;;;;;;10297132;28;20423;-64
2021/10/21 14:01:01;;;;;;;15.13;8.40;;;;;;;;;;10302188;28;20510;-64
2021/10/21 14:06:00;;;;;;;14.38;8.23;;;;;;;;;;10304462;28;20080;-63
2021/10/21 14:10:59;;;;;;;13.80;9.30;;;;;;;;;;10313709;28;20063;-63
2021/10/21 14:16:01;;;;;;;11.43;8.57;;;;;;;;;;10305699;28;20077;-64
2021/10/21 14:20:59;;;;;;;12.63;10.10;;;;;;;;;;10298129;28;20068;-63
2021/10/21 14:25:58;;;;;;;8.90;7.95;;;;;;;;;;10295370;28;20079;-63
2021/10/21 14:30:56;;;;;;;11.07;9.73;;;;;;;;;;10292541;28;20069;-63
2021/10/21 14:36:11;;;;;;;69.07;47.22;;;;;;;;;;10298474;28;20443;-64
2021/10/21 14:41:09;;;;;;;37.60;31.00;;;;;;;;;;10296361;28;20069;-63
2021/10/21 14:46:08;;;;;;;37.85;30.70;;;;;;;;;;10304270;28;20064;-63
2021/10/21 14:51:07;;;;;;;114.00;68.70;;;;;;;;;;10311431;28;20068;-63
2021/10/21 14:56:07;;;;;;;101.95;54.33;;;;;;;;;;10302535;28;20076;-63
2021/10/21 15:01:05;;;;;;;80.63;44.45;;;;;;;;;;10296638;28;20075;-64
2021/10/21 15:06:12;;;;;;;52.20;35.05;;;;;;;;;;10295721;28;20075;-64
2021/10/21 15:11:37;;;;;;;27.48;22.77;;;;;;;;;;10295038;28;20071;-64
2021/10/21 15:27:23;;;;;;;70.03;44.13;;;;;;;;;;10286983;28;20079;-63
2021/10/21 15:32:21;;;;;;;39.85;29.25;;;;;;;;;;10300833;28;20080;-63
2021/10/21 15:37:20;;;;;;;37.13;24.70;;;;;;;;;;10291176;28;20075;-64
2021/10/21 15:42:19;;;;;;;19.88;16.77;;;;;;;;;;10304954;28;20470;-64
2021/10/21 15:47:22;;;;;;;28.98;21.17;;;;;;;;;;10309170;28;20049;-64
2021/10/21 16:13:26;;;;;;;150.52;100.63;;;;;;;;;;10319840;28;20084;-64
2021/10/21 16:18:26;;;;;;;37.83;33.60;;;;;;;;;;10306269;28;20056;-64
2021/10/21 16:23:32;;;;;;;43.25;28.02;;;;;;;;;;10293974;28;20076;-64
2021/10/21 16:28:31;;;;;;;54.13;40.38;;;;;;;;;;10302669;28;20072;-64
2021/10/21 16:33:31;;;;;;;26.33;22.92;;;;;;;;;;10317642;28;20060;-64
2021/10/21 16:38:29;;;;;;;26.63;20.88;;;;;;;;;;10316351;28;20072;-64
2021/10/21 16:43:27;;;;;;;20.63;16.42;;;;;;;;;;10305729;28;20075;-64
2021/10/21 16:48:26;;;;;;;17.60;14.93;;;;;;;;;;10301874;28;20455;-64
2021/10/21 16:53:26;;;;;;;24.88;20.50;;;;;;;;;;10299465;28;20075;-64
2021/10/21 16:58:24;;;;;;;14.18;12.43;;;;;;;;;;10316014;28;20492;-63
2021/10/21 17:03:24;;;;;;;15.68;12.32;;;;;;;;;;10309771;28;20064;-63
2021/10/21 17:08:23;;;;;;;18.42;13.68;;;;;;;;;;10302183;28;20473;-64
2021/10/21 17:13:22;;;;;;;16.50;14.00;;;;;;;;;;10301667;28;20068;-64
2021/10/21 17:18:21;;;;;;;14.32;12.93;;;;;;;;;;10286928;28;20118;-64
2021/10/21 17:23:20;;;;;;;26.30;23.40;;;;;;;;;;10266090;28;20072;-64
2021/10/21 17:28:18;;;;;;;19.50;17.10;;;;;;;;;;10236097;28;20081;-64
2021/10/21 17:33:18;;;;;;;20.05;17.77;;;;;;;;;;10254446;28;20068;-64
2021/10/21 17:38:16;;;;;;;17.92;14.70;;;;;;;;;;10292083;28;20080;-64
2021/10/21 17:43:17;;;;;;;17.92;16.02;;;;;;;;;;10302593;28;20498;-64
2021/10/21 17:48:16;;;;;;;18.42;16.48;;;;;;;;;;10309957;28;20067;-64
2021/10/21 17:53:15;;;;;;;16.27;14.57;;;;;;;;;;10309988;28;20082;-65
2021/10/21 17:58:14;;;;;;;13.45;12.00;;;;;;;;;;10307586;28;20079;-64
2021/10/21 18:03:14;;;;;;;15.15;13.57;;;;;;;;;;10309056;28;20076;-64
2021/10/21 18:08:12;;;;;;;16.23;14.63;;;;;;;;;;10306219;28;20573;-63
2021/10/21 18:13:13;;;;;;;26.23;20.75;;;;;;;;;;10234968;28;20060;-62
2021/10/21 18:18:11;;;;;;;17.67;14.80;;;;;;;;;;10232616;28;20060;-63
2021/10/21 18:23:10;;;;;;;21.00;15.95;;;;;;;;;;10243865;28;20069;-64
2021/10/21 18:28:09;;;;;;;18.02;15.35;;;;;;;;;;10240184;28;20076;-65
2021/10/21 18:33:09;;;;;;;19.50;14.73;;;;;;;;;;10243171;28;20127;-64
2021/10/21 18:38:08;;;;;;;22.58;16.60;;;;;;;;;;10252371;28;20110;-65
2021/10/21 18:43:07;;;;;;;17.48;13.68;;;;;;;;;;10240334;28;20068;-65
2021/10/21 18:48:05;;;;;;;161.27;144.77;;;;;;;;;;10235331;28;20074;-67
2021/10/21 18:53:05;;;;;;;16.55;14.85;;;;;;;;;;10242565;28;20152;-64
2021/10/21 18:58:04;;;;;;;15.95;14.27;;;;;;;;;;10235918;28;20067;-65
2021/10/21 19:03:03;;;;;;;18.45;14.88;;;;;;;;;;10300759;28;20079;-64
2021/10/21 19:08:01;;;;;;;15.13;13.18;;;;;;;;;;10278264;28;20520;-64
2021/10/21 19:13:01;;;;;;;17.52;13.55;;;;;;;;;;10296099;28;20067;-63
2021/10/21 19:18:03;;;;;;;15.00;12.85;;;;;;;;;;10297959;28;20075;-63
2021/10/21 19:23:01;;;;;;;14.63;13.13;;;;;;;;;;10289065;28;20068;-63
2021/10/21 19:28:01;;;;;;;15.38;13.93;;;;;;;;;;10277421;28;20076;-64
2021/10/21 19:33:01;;;;;;;15.05;13.55;;;;;;;;;;10297894;28;20504;-63
2021/10/21 19:38:02;;;;;;;15.57;14.00;;;;;;;;;;10295081;28;20076;-64
2021/10/21 19:43:04;;;;;;;15.75;13.70;;;;;;;;;;10313677;28;20045;-63
2021/10/21 19:48:03;;;;;;;16.77;13.05;;;;;;;;;;10293127;28;20089;-62
2021/10/21 19:53:02;;;;;;;15.45;13.85;;;;;;;;;;10290815;28;20083;-64
2021/10/21 19:58:02;;;;;;;14.40;13.02;;;;;;;;;;10282407;28;20072;-63
2021/10/21 20:03:00;;;;;;;15.73;14.23;;;;;;;;;;10297252;28;20521;-63
2021/10/21 20:07:59;;;;;;;14.82;12.68;;;;;;;;;;10291723;28;20671;-63
2021/10/21 20:13:01;;;;;;;17.25;13.60;;;;;;;;;;10311897;28;20068;-63
2021/10/21 20:18:04;;;;;;;16.70;13.45;;;;;;;;;;10292507;28;20068;-64
2021/10/21 20:23:02;;;;;;;15.40;13.52;;;;;;;;;;10287241;28;20593;-64
2021/10/21 20:28:00;;;;;;;14.18;12.77;;;;;;;;;;10291360;28;20442;-64
2021/10/21 20:33:00;;;;;;;18.40;13.63;;;;;;;;;;10300349;28;20627;-63
2021/10/21 20:38:00;;;;;;;15.15;13.05;;;;;;;;;;10304061;28;20072;-63
2021/10/21 20:42:58;;;;;;;14.75;13.20;;;;;;;;;;10317599;28;20044;-63
2021/10/21 20:47:57;;;;;;;12.98;11.68;;;;;;;;;;10304658;28;20064;-64
2021/10/21 20:52:55;;;;;;;17.83;12.10;;;;;;;;;;10316390;28;20083;-63
2021/10/21 20:57:55;;;;;;;13.00;11.70;;;;;;;;;;10305786;28;20057;-63
2021/10/21 21:02:55;;;;;;;12.40;11.13;;;;;;;;;;10296187;28;20064;-64
2021/10/21 21:07:53;;;;;;;14.07;11.43;;;;;;;;;;10316648;28;20060;-63
2021/10/21 21:12:56;;;;;;;12.13;10.93;;;;;;;;;;10318063;28;20068;-63
2021/10/21 21:17:59;;;;;;;14.70;12.00;;;;;;;;;;10306469;28;20067;-63
2021/10/21 21:22:58;;;;;;;13.07;10.70;;;;;;;;;;10296028;28;20069;-63
2021/10/21 21:27:57;;;;;;;12.95;11.55;;;;;;;;;;10243197;28;20530;-62
2021/10/21 21:32:56;;;;;;;12.20;10.98;;;;;;;;;;10247987;28;20466;-63
2021/10/21 21:37:54;;;;;;;12.80;10.73;;;;;;;;;;10316645;28;20036;-63
2021/10/21 21:42:52;;;;;;;11.65;10.52;;;;;;;;;;10318212;28;20425;-63
2021/10/21 21:47:52;;;;;;;12.13;11.02;;;;;;;;;;10294728;28;20057;-63
2021/10/21 21:52:50;;;;;;;14.63;11.15;;;;;;;;;;10312837;28;20493;-62
2021/10/21 21:57:52;;;;;;;12.95;11.65;;;;;;;;;;10315321;28;20041;-64
2021/10/21 22:02:52;;;;;;;24.10;10.80;;;;;;;;;;10313723;28;20064;-63
2021/10/21 22:07:51;;;;;;;12.38;11.07;;;;;;;;;;10316314;28;20057;-63
2021/10/21 22:12:50;;;;;;;12.32;11.13;;;;;;;;;;10315318;28;20475;-63
2021/10/21 22:17:48;;;;;;;15.18;11.38;;;;;;;;;;10314346;28;20060;-64
2021/10/21 22:22:48;;;;;;;12.63;11.32;;;;;;;;;;10312668;28;20076;-63
2021/10/21 22:27:49;;;;;;;13.48;12.10;;;;;;;;;;10300730;28;20453;-64
2021/10/21 22:32:48;;;;;;;12.63;11.25;;;;;;;;;;10312702;28;20060;-64
2021/10/21 22:37:46;;;;;;;11.57;10.32;;;;;;;;;;10309410;28;20052;-65
2021/10/21 22:42:46;;;;;;;12.93;11.57;;;;;;;;;;10314181;28;20124;-64
2021/10/21 22:47:44;;;;;;;13.13;11.07;;;;;;;;;;10299931;28;20528;-64
2021/10/21 22:52:43;;;;;;;12.55;11.35;;;;;;;;;;10298489;28;20113;-63
2021/10/21 22:57:49;;;;;;;13.02;11.63;;;;;;;;;;10298219;28;20071;-64
2021/10/21 23:02:51;;;;;;;14.45;11.52;;;;;;;;;;10300669;28;20506;-63
2021/10/21 23:08:01;;;;;;;12.80;11.50;;;;;;;;;;10313673;28;20068;-63
2021/10/21 23:13:01;;;;;;;13.10;11.68;;;;;;;;;;10312411;28;20490;-64
2021/10/21 23:18:02;;;;;;;16.50;12.30;;;;;;;;;;10299147;28;20940;-64
2021/10/21 23:23:01;;;;;;;15.65;12.52;;;;;;;;;;10312716;28;20080;-64
2021/10/21 23:28:00;;;;;;;14.00;12.50;;;;;;;;;;10312223;28;20068;-63
2021/10/21 23:33:00;;;;;;;12.82;11.38;;;;;;;;;;10310608;28;20094;-63
2021/10/21 23:37:59;;;;;;;16.75;12.93;;;;;;;;;;10312410;28;20426;-63
2021/10/21 23:42:57;;;;;;;13.85;11.68;;;;;;;;;;10311028;28;20049;-63
2021/10/21 23:47:55;;;;;;;13.98;12.57;;;;;;;;;;10295445;28;20065;-63
2021/10/21 23:52:55;;;;;;;19.17;15.00;;;;;;;;;;10311935;28;20481;-63
2021/10/21 23:57:53;;;;;;;12.93;11.60;;;;;;;;;;10311403;28;20434;-63
